Aérodrome :
LOGIN :

S'inscrire | Disclaimer

   EN    FR    IT 

 










Légende :    VFR   VFR Marginal   IFR   IFR Intensif   IFR Très Intensif
Visi : 
Plafond : 
>= 8 km
>= 3000ft
5 à 8 km
1000 à 3000 ft
1500m à 5 km
500 à 1000 ft
800 à 1500m
200 à 500 ft
< 800m
< 200 ft
Symboles :   Orages  Brouillard  Fortes neiges  Fortes précipitations  Vent > 20 kt
SIGMETs :   Divers  Orages  Givrage  Turbulence  Onde Orograph.  Cendres Volcan.






- Altitude de l'aérodrome : 13 ft
- Code IATA : CEQ


LFMD - Cannes Mandelieu

DERNIER METAR :
  • 251930Z AUTO VRB01KT CAVOK 21/17 Q1015 NOSIG

METARs EXPIRÉS :
  • 251900Z AUTO VRB02KT CAVOK 22/19 Q1015 NOSIG
  • 251830Z AUTO 20003KT 170V250 9999 FEW011 22/19 Q1015 NOSIG
  • 251800Z AUTO 17005KT CAVOK 22/18 Q1014 NOSIG
  • 251730Z AUTO 18006KT 140V210 CAVOK 23/19 Q1014 NOSIG
  • 251700Z AUTO 16006KT 120V200 CAVOK 23/19 Q1014 NOSIG

TAF TAF LFMD
Valide du 25 à 15h jusqu'au 26 à 15h UTC


251400Z 2515/2615 17008KT CAVOK
PROB40
TEMPO 2515/2516 FEW060TCU
BECMG 2516/2518 VRB03KT
BECMG 2608/2610 24008KT
ATIS : +33 4 92 19 94 92



MET'MAP, la Météo Aéronautique d'un coup d'oeil ! - Copyright ORBIFLY Décembre 2007 - Disclaimer

ORBIFLY MET'MAP TEAM :

Programmation & Développement : Alexandra Zaïnal
Sur une idée originale de : Baudouin d'Aumeries
Soutien technique & logistique : Manuel Goepfert
Assistance : Marc-Olivier Méhu

Contact : metmap@orbifly.com




SOURCES & CREDITS :

   NOAA